Terminal Aerodrome Forecast
Issued by NWS

Home | Current Version | Previous Version | Text Only | Print | Product List | Glossary On
Versions: 1 2 3 4 5 6 7 8 9 10 11 12 13 14 15 16 17 18 19 20
000
FTUS45 KABQ 311100 RRA
TAFTCC
TAF
KTCC 311151Z 3112/0112 05006KT P6SM SCT040 SCT100
     FM311500 07007KT P6SM FEW050 SCT100
     FM010000 13010KT P6SM SCT080 BKN100
     FM010400 15008KT P6SM VCTS SCT080CB BKN100=

USA.gov is the U.S. government's official web portal to all federal, state and local government web resources and services.